createdAt,value
2023-01-19T00:00:27.323Z,99195.11
2023-01-19T00:02:55.307Z,99190.61
2023-01-19T00:05:25.597Z,99192.37
2023-01-19T00:07:55.720Z,99205.98
2023-01-19T00:10:31.159Z,99213.16
2023-01-19T00:12:58.792Z,99217.57
2023-01-19T00:15:35.495Z,99227.41
2023-01-19T00:18:05.714Z,99238.02
2023-01-19T00:20:36.156Z,99236.08
2023-01-19T00:23:08.376Z,99240.02
2023-01-19T00:25:36.756Z,99245.73
2023-01-19T00:28:03.875Z,99248.14
2023-01-19T00:30:31.196Z,99251.45
2023-01-19T00:32:58.824Z,99247.74
2023-01-19T00:35:29.959Z,99244.42
2023-01-19T00:37:58.282Z,99238.15
2023-01-19T00:40:25.743Z,99231.91
2023-01-19T00:42:55.653Z,99229.24
2023-01-19T00:45:24.099Z,99240.89
2023-01-19T00:47:57.315Z,99249.84
2023-01-19T00:50:25.720Z,99255.89
2023-01-19T00:52:53.984Z,99260.07
2023-01-19T00:55:21.238Z,99251.05
2023-01-19T00:57:49.001Z,99251.15
2023-01-19T01:00:20.953Z,99244.92
2023-01-19T01:02:48.799Z,99242.15
2023-01-19T01:05:18.545Z,99239.92
2023-01-19T01:07:45.794Z,99248.80
2023-01-19T01:10:19.293Z,99256.81
2023-01-19T01:12:54.944Z,99261.48
2023-01-19T01:15:29.983Z,99264.84
2023-01-19T01:18:02.662Z,99257.52
2023-01-19T01:20:30.737Z,99250.98
2023-01-19T01:22:58.496Z,99259.70
2023-01-19T01:25:34.351Z,99265.66
2023-01-19T01:28:03.264Z,99261.96
2023-01-19T01:30:30.288Z,99259.59
2023-01-19T01:32:57.782Z,99257.89
2023-01-19T01:35:28.384Z,99257.70
2023-01-19T01:37:58.589Z,99254.20
2023-01-19T01:40:28.721Z,99255.29
2023-01-19T01:42:55.873Z,99267.11
2023-01-19T01:45:34.650Z,99270.36
2023-01-19T01:48:27.960Z,99273.82
2023-01-19T01:51:39.055Z,99273.59
2023-01-19T01:54:26.979Z,99272.23
2023-01-19T01:56:57.711Z,99274.90
2023-01-19T01:59:35.027Z,99282.61
2023-01-19T02:49:59.460Z,99293.71
2023-01-19T02:52:27.049Z,99294.13
2023-01-19T02:55:18.738Z,99293.85
2023-01-19T02:58:01.141Z,99287.46
2023-01-19T03:00:34.225Z,99276.82
2023-01-19T03:03:10.655Z,99257.95
2023-01-19T03:05:43.686Z,99269.66
2023-01-19T03:08:28.036Z,99272.23
2023-01-19T03:11:03.564Z,99281.84
2023-01-19T03:13:39.645Z,99281.74
2023-01-19T03:16:29.881Z,99272.28
2023-01-19T03:19:00.305Z,99275.73
2023-01-19T03:21:28.036Z,99279.75
2023-01-19T03:23:57.230Z,99303.13
2023-01-19T03:26:26.319Z,99310.50
2023-01-19T03:28:53.205Z,99316.66
2023-01-19T03:31:22.834Z,99303.20
2023-01-19T03:33:57.866Z,99313.09
2023-01-19T03:36:29.972Z,99322.47
2023-01-19T03:38:57.637Z,99327.00
2023-01-19T03:41:24.696Z,99332.21
2023-01-19T03:43:52.252Z,99333.48
2023-01-19T03:46:19.411Z,99332.55
2023-01-19T03:48:46.652Z,99332.56
2023-01-19T03:51:14.723Z,99333.59
2023-01-19T03:53:42.177Z,99337.19
2023-01-19T03:56:21.291Z,99335.85
2023-01-19T03:58:48.457Z,99326.61
2023-01-19T04:01:15.881Z,99324.20
2023-01-19T04:03:43.069Z,99328.92
2023-01-19T04:06:10.384Z,99329.59
2023-01-19T04:08:37.366Z,99330.42
2023-01-19T04:11:04.415Z,99323.77
2023-01-19T04:13:32.130Z,99319.11
2023-01-19T04:16:02.905Z,99318.25
2023-01-19T04:18:31.289Z,99325.48
2023-01-19T04:21:00.802Z,99328.90
2023-01-19T04:23:28.357Z,99326.22
2023-01-19T04:25:59.194Z,99331.01
2023-01-19T04:28:26.652Z,99335.47
2023-01-19T04:30:53.727Z,99342.05
2023-01-19T04:33:21.262Z,99342.98
2023-01-19T04:35:48.819Z,99340.96
2023-01-19T04:38:15.878Z,99345.42
2023-01-19T04:40:42.935Z,99343.12
2023-01-19T04:43:10.130Z,99348.41
2023-01-19T04:45:37.249Z,99345.05
2023-01-19T04:48:05.188Z,99353.35
2023-01-19T04:50:32.496Z,99352.52
2023-01-19T04:52:59.811Z,99353.64
2023-01-19T04:55:26.859Z,99346.04
2023-01-19T04:57:54.455Z,99333.07
2023-01-19T05:00:21.577Z,99331.75
2023-01-19T05:02:48.720Z,99336.66
2023-01-19T05:05:15.758Z,99342.81
2023-01-19T05:07:43.114Z,99342.58
2023-01-19T05:10:11.284Z,99344.31
2023-01-19T05:12:38.328Z,99361.73
2023-01-19T05:15:09.889Z,99359.74
2023-01-19T05:17:37.139Z,99359.41
2023-01-19T05:20:04.823Z,99362.14
2023-01-19T05:22:32.376Z,99366.20
2023-01-19T05:24:59.317Z,99364.96
2023-01-19T05:27:26.367Z,99367.21
2023-01-19T05:29:53.401Z,99370.47
2023-01-19T05:32:20.346Z,99371.89
2023-01-19T05:34:47.706Z,99381.29
2023-01-19T05:37:14.647Z,99383.17
2023-01-19T05:39:41.531Z,99397.21
2023-01-19T05:42:08.655Z,99394.80
2023-01-19T05:44:35.686Z,99392.11
2023-01-19T05:47:02.643Z,99393.72
2023-01-19T05:49:29.681Z,99407.52
2023-01-19T05:51:56.936Z,99408.52
2023-01-19T05:54:24.186Z,99402.02
2023-01-19T05:56:51.234Z,99396.98
2023-01-19T05:59:24.289Z,99393.23
2023-01-19T06:01:52.280Z,99370.58
2023-01-19T06:04:20.266Z,99353.88
2023-01-19T06:06:50.341Z,99351.61
2023-01-19T06:09:17.941Z,99347.75
2023-01-19T06:11:45.489Z,99351.14
2023-01-19T06:14:12.553Z,99345.90
2023-01-19T06:16:39.542Z,99338.77
2023-01-19T06:19:06.652Z,99339.44
2023-01-19T06:21:34.544Z,99327.14
2023-01-19T06:24:01.495Z,99317.95
2023-01-19T06:26:28.583Z,99297.52
2023-01-19T06:28:55.579Z,99280.13
2023-01-19T06:31:22.724Z,99266.52
2023-01-19T06:33:50.375Z,99256.64
2023-01-19T06:36:17.212Z,99257.80
2023-01-19T06:38:44.266Z,99258.95
2023-01-19T06:41:11.319Z,99259.95
2023-01-19T06:43:38.263Z,99272.22
2023-01-19T06:46:05.445Z,99289.70
2023-01-19T06:48:32.336Z,99284.95
2023-01-19T06:50:59.930Z,99278.79
2023-01-19T06:53:28.544Z,99282.52
2023-01-19T06:56:00.157Z,99279.05
2023-01-19T06:58:28.220Z,99276.59
2023-01-19T07:00:55.324Z,99275.46
2023-01-19T07:03:23.407Z,99263.45
2023-01-19T07:05:53.874Z,99256.59
2023-01-19T07:08:20.920Z,99244.23
2023-01-19T07:11:25.246Z,99240.77
2023-01-19T07:13:35.359Z,99238.91
2023-01-19T07:16:08.142Z,99233.89
2023-01-19T07:18:36.246Z,99233.98
2023-01-19T07:21:03.689Z,99232.99
2023-01-19T07:23:31.063Z,99231.13
2023-01-19T07:25:58.825Z,99235.58
2023-01-19T07:28:25.872Z,99232.63
2023-01-19T07:30:53.527Z,99233.39
2023-01-19T07:33:22.272Z,99238.23
2023-01-19T07:35:49.788Z,99248.20
2023-01-19T07:38:17.957Z,99246.39
2023-01-19T07:40:45.310Z,99248.31
2023-01-19T07:43:12.258Z,99239.30
2023-01-19T07:45:39.344Z,99241.90
2023-01-19T07:48:06.899Z,99235.04
2023-01-19T07:50:34.015Z,99235.90
2023-01-19T07:53:08.286Z,99231.77
2023-01-19T07:55:35.497Z,99229.99
2023-01-19T07:58:05.301Z,99227.46
2023-01-19T08:00:33.293Z,99217.12
2023-01-19T08:03:01.308Z,99206.33
2023-01-19T08:05:31.259Z,99202.95
2023-01-19T08:07:58.615Z,99204.13
2023-01-19T08:10:26.897Z,99209.89
2023-01-19T08:12:54.659Z,99220.15
2023-01-19T08:15:24.240Z,99227.55
2023-01-19T08:17:58.582Z,99244.58
2023-01-19T08:20:26.138Z,99258.55
2023-01-19T08:23:00.303Z,99252.34
2023-01-19T08:25:32.831Z,99250.70
2023-01-19T08:28:00.102Z,99249.29
2023-01-19T08:30:27.182Z,99246.02
2023-01-19T08:32:54.972Z,99242.05
2023-01-19T08:35:22.967Z,99244.27
2023-01-19T08:37:50.939Z,99239.98
2023-01-19T08:40:18.729Z,99253.47
2023-01-19T08:42:46.160Z,99249.36
2023-01-19T08:45:13.274Z,99259.23
2023-01-19T08:47:40.283Z,99256.15
2023-01-19T08:50:08.125Z,99256.14
2023-01-19T08:52:35.887Z,99248.27
2023-01-19T08:55:03.036Z,99244.17
2023-01-19T08:57:30.300Z,99250.41
2023-01-19T08:59:57.235Z,99243.42
2023-01-19T09:02:24.272Z,99248.42
2023-01-19T09:04:51.950Z,99256.77
2023-01-19T09:07:19.099Z,99247.97
2023-01-19T09:09:46.073Z,99248.30
2023-01-19T09:12:13.088Z,99253.71
2023-01-19T09:14:40.140Z,99257.92
2023-01-19T09:17:07.087Z,99254.76
2023-01-19T09:19:35.164Z,99252.40
2023-01-19T09:22:02.309Z,99250.45
2023-01-19T09:24:29.249Z,99255.55
2023-01-19T09:26:56.197Z,99255.83
2023-01-19T09:29:23.141Z,99248.55
2023-01-19T09:31:50.162Z,99254.97
2023-01-19T09:34:17.339Z,99247.11
2023-01-19T09:36:44.387Z,99242.98
2023-01-19T09:39:11.436Z,99234.98
2023-01-19T09:41:38.892Z,99229.31
2023-01-19T09:44:05.951Z,99225.09
2023-01-19T09:46:40.834Z,99220.55
2023-01-19T09:49:16.536Z,99219.05
2023-01-19T09:51:50.296Z,99215.48
2023-01-19T09:54:23.424Z,99211.80
2023-01-19T09:56:52.742Z,99209.05
2023-01-19T09:59:21.309Z,99207.06
2023-01-19T10:02:08.422Z,99203.09
2023-01-19T10:04:44.203Z,99200.84
2023-01-19T10:07:20.438Z,99194.90
2023-01-19T10:10:15.542Z,99191.83
2023-01-19T10:13:13.832Z,99190.46
2023-01-19T10:15:49.904Z,99187.30
2023-01-19T10:18:23.183Z,99178.77
2023-01-19T10:20:52.293Z,99169.27
2023-01-19T10:23:44.933Z,99170.30
2023-01-19T10:26:42.898Z,99166.90
2023-01-19T10:29:22.043Z,99164.17
2023-01-19T10:31:49.156Z,99162.70
2023-01-19T10:34:21.573Z,99158.79
2023-01-19T10:36:50.851Z,99153.66
2023-01-19T10:39:18.757Z,99155.01
2023-01-19T10:41:53.005Z,99153.70
2023-01-19T10:44:27.524Z,99143.37
2023-01-19T10:46:56.058Z,99130.98
2023-01-19T10:49:35.901Z,99121.55
2023-01-19T10:52:03.247Z,99122.71
2023-01-19T10:54:30.719Z,99116.59
2023-01-19T10:57:08.548Z,99112.41
2023-01-19T10:59:48.069Z,99108.66
2023-01-19T11:02:23.064Z,99109.55
2023-01-19T11:04:53.135Z,99109.02
2023-01-19T11:07:21.185Z,99108.42
2023-01-19T11:09:48.737Z,99115.33
2023-01-19T11:12:17.314Z,99110.67
2023-01-19T11:14:44.260Z,99101.13
2023-01-19T11:17:25.482Z,99104.88
2023-01-19T11:19:59.901Z,99104.61
2023-01-19T11:22:33.393Z,99106.56
2023-01-19T11:25:04.817Z,99097.71
2023-01-19T11:27:33.628Z,99096.46
2023-01-19T11:30:18.261Z,99099.48
2023-01-19T11:32:46.432Z,99102.90
2023-01-19T11:35:36.730Z,99098.68
2023-01-19T11:38:17.089Z,99095.04
2023-01-19T11:40:51.143Z,99097.82
2023-01-19T11:43:18.079Z,99093.20
2023-01-19T11:45:45.096Z,99082.56
2023-01-19T11:48:21.252Z,99085.14
2023-01-19T11:50:48.196Z,99086.38
2023-01-19T11:53:25.617Z,99083.89
2023-01-19T11:56:05.033Z,99086.88
2023-01-19T11:58:33.011Z,99084.30
2023-01-19T12:01:11.873Z,99078.97
2023-01-19T12:03:44.638Z,99083.13
2023-01-19T12:06:16.064Z,99084.99
2023-01-19T12:08:51.749Z,99085.29
2023-01-19T12:11:44.362Z,99085.40
2023-01-19T12:14:17.708Z,99081.03
2023-01-19T12:16:45.165Z,99078.08
2023-01-19T12:19:17.293Z,99076.90
2023-01-19T12:21:44.632Z,99076.55
2023-01-19T12:24:26.402Z,99079.36
2023-01-19T12:26:57.471Z,99091.58
2023-01-19T12:29:26.564Z,99097.89
2023-01-19T12:32:15.327Z,99086.70
2023-01-19T12:34:52.806Z,99074.30
2023-01-19T12:37:42.290Z,99077.58
2023-01-19T12:40:24.709Z,99073.77
2023-01-19T12:42:56.991Z,99074.63
2023-01-19T12:45:25.832Z,99080.22
2023-01-19T12:47:53.315Z,99080.23
2023-01-19T12:50:23.577Z,99080.09
2023-01-19T12:52:57.143Z,99083.03
2023-01-19T12:55:28.076Z,99091.16
2023-01-19T12:58:20.831Z,99095.25
2023-01-19T13:00:49.315Z,99081.58
2023-01-19T13:03:16.357Z,99086.41
2023-01-19T13:05:43.309Z,99093.02
2023-01-19T13:08:10.252Z,99094.36
2023-01-19T13:11:15.962Z,99083.61
2023-01-19T13:13:44.275Z,99079.64
2023-01-19T13:16:20.970Z,99071.41
2023-01-19T13:19:15.900Z,99070.14
2023-01-19T13:21:46.280Z,99062.57
2023-01-19T13:24:23.063Z,99063.24
2023-01-19T13:26:50.015Z,99065.71
2023-01-19T13:29:20.015Z,99060.25
2023-01-19T13:31:49.321Z,99064.59
2023-01-19T13:34:24.714Z,99071.48
2023-01-19T13:36:53.246Z,99075.59
2023-01-19T13:39:32.582Z,99076.61
2023-01-19T13:42:01.288Z,99074.74
2023-01-19T13:44:39.424Z,99076.73
2023-01-19T13:47:08.218Z,99085.58
2023-01-19T13:49:44.205Z,99086.14
2023-01-19T13:52:15.672Z,99092.16
2023-01-19T13:54:53.766Z,99094.31
2023-01-19T13:57:29.029Z,99092.95
2023-01-19T14:00:12.180Z,99089.60
2023-01-19T14:02:40.327Z,99101.09
2023-01-19T14:05:13.586Z,99104.30
2023-01-19T14:07:40.699Z,99103.15
2023-01-19T14:10:12.667Z,99098.33
2023-01-19T14:12:51.220Z,99101.64
2023-01-19T14:15:25.395Z,99100.29
2023-01-19T14:18:30.204Z,99102.78
2023-01-19T14:21:01.266Z,99101.13
2023-01-19T14:23:47.189Z,99103.27
2023-01-19T14:26:48.913Z,99089.91
2023-01-19T14:29:21.873Z,99093.88
2023-01-19T14:31:49.943Z,99105.94
2023-01-19T14:34:29.387Z,99112.61
2023-01-19T14:36:56.337Z,99117.86
2023-01-19T14:39:24.912Z,99120.52
2023-01-19T14:41:54.840Z,99113.73
2023-01-19T14:44:42.151Z,99118.77
2023-01-19T14:47:21.999Z,99120.93
2023-01-19T14:49:49.164Z,99120.23
2023-01-19T14:52:22.109Z,99114.64
2023-01-19T14:54:49.085Z,99116.66
2023-01-19T14:58:33.262Z,99121.40
2023-01-19T15:01:00.508Z,99119.38
2023-01-19T15:03:43.595Z,99114.30
2023-01-19T15:06:19.084Z,99111.50
2023-01-19T15:08:46.429Z,99114.96
2023-01-19T15:11:17.767Z,99114.85
2023-01-19T15:13:44.812Z,99119.73
2023-01-19T15:16:11.693Z,99125.64
2023-01-19T15:18:39.221Z,99127.04
2023-01-19T15:21:06.577Z,99125.58
2023-01-19T15:23:33.543Z,99124.21
2023-01-19T15:26:04.580Z,99132.19
2023-01-19T15:28:31.816Z,99130.77
2023-01-19T15:30:59.562Z,99128.46
2023-01-19T15:33:32.915Z,99130.00
2023-01-19T15:35:59.919Z,99132.34
2023-01-19T15:38:27.996Z,99131.50
2023-01-19T15:40:55.038Z,99131.52
2023-01-19T15:43:22.209Z,99132.73
2023-01-19T15:46:01.042Z,99130.29
2023-01-19T15:48:28.162Z,99127.75
2023-01-19T15:50:55.210Z,99122.88
2023-01-19T15:53:24.415Z,99126.28
2023-01-19T15:55:52.499Z,99133.50
2023-01-19T15:58:20.825Z,99131.76
2023-01-19T16:00:57.819Z,99131.74
2023-01-19T16:03:25.611Z,99131.20
2023-01-19T16:05:52.654Z,99138.14
2023-01-19T20:18:19.255Z,99140.05
2023-01-19T20:20:46.819Z,99149.12
2023-01-19T20:23:13.757Z,99154.41
2023-01-19T20:25:40.904Z,99150.21
2023-01-19T20:28:08.470Z,99152.77
2023-01-19T20:30:35.771Z,99155.45
2023-01-19T20:33:03.001Z,99158.15
2023-01-19T20:35:30.325Z,99163.77
2023-01-19T20:37:57.475Z,99163.86
2023-01-19T20:40:24.626Z,99163.15
2023-01-19T20:42:51.881Z,99163.13
2023-01-19T20:45:21.043Z,99165.73
2023-01-19T20:47:48.232Z,99170.65
2023-01-19T20:50:15.585Z,99170.73
2023-01-19T20:52:42.840Z,99171.83
2023-01-19T20:55:10.605Z,99174.77
2023-01-19T20:57:37.864Z,99174.38
2023-01-19T21:00:05.718Z,99178.92
2023-01-19T21:02:32.830Z,99182.83
2023-01-19T21:05:00.224Z,99182.95
2023-01-19T21:07:27.683Z,99182.50
2023-01-19T21:09:54.876Z,99187.02
2023-01-19T21:12:23.431Z,99185.70
2023-01-19T21:14:50.670Z,99187.29
2023-01-19T21:17:17.870Z,99190.23
2023-01-19T21:19:44.971Z,99191.03
2023-01-19T21:22:12.125Z,99189.00
2023-01-19T21:24:39.489Z,99193.31
2023-01-19T21:27:06.832Z,99194.55
2023-01-19T21:29:34.087Z,99197.27
2023-01-19T21:32:01.448Z,99199.13
2023-01-19T21:34:28.469Z,99203.08
2023-01-19T21:36:55.519Z,99208.80
2023-01-19T21:39:22.664Z,99212.59
2023-01-19T21:41:49.915Z,99221.41
2023-01-19T21:44:17.068Z,99220.17
2023-01-19T21:46:44.142Z,99222.35
2023-01-19T21:49:16.106Z,99218.48
2023-01-19T21:51:43.255Z,99224.98
2023-01-19T21:54:10.611Z,99230.70
2023-01-19T21:56:38.599Z,99227.30
2023-01-19T21:59:06.047Z,99225.64
2023-01-19T22:01:33.940Z,99229.75
